Time;durP1;ratioP1;P1;durP2;ratioP2;P2;SDS_P1;SDS_P2;PMS_P1;PMS_P2;Temp;Humidity;BMP_temperature;BMP_pressure;BME280_temperature;BME280_humidity;BME280_pressure;Samples;Min_cycle;Max_cycle;Signal;HPM_P1;HPM_P2
2021/07/14 00:01:44;;;;;;;16.90;11.30;;;;;;;22.84;66.37;100916.53;5032015;28;20083;-48
2021/07/14 00:04:10;;;;;;;16.10;11.90;;;;;;;22.82;66.50;100922.31;5033059;28;20070;-48
2021/07/14 00:06:38;;;;;;;13.60;11.70;;;;;;;22.87;66.04;100904.94;5030978;28;20017;-48
2021/07/14 00:09:08;;;;;;;17.48;11.80;;;;;;;22.79;67.09;100901.06;5035641;28;20029;-50
2021/07/14 00:11:39;;;;;;;12.93;10.93;;;;;;;22.72;67.18;100908.16;5029372;28;20022;-49
2021/07/14 00:22:33;;;;;;;14.75;11.35;;;;;;;22.84;66.33;100905.59;4964913;28;20166;-48
2021/07/14 00:25:04;;;;;;;13.95;11.07;;;;;;;22.79;66.93;100903.00;5003831;28;20076;-47
2021/07/14 00:27:30;;;;;;;16.55;11.68;;;;;;;22.86;66.25;100892.41;5030514;28;20021;-50
2021/07/14 00:29:56;;;;;;;12.13;10.82;;;;;;;22.86;66.39;100890.47;5032498;28;20086;-48
2021/07/14 00:32:28;;;;;;;13.43;10.43;;;;;;;22.82;66.67;100880.53;5030162;28;20029;-49
2021/07/14 00:34:54;;;;;;;13.30;11.27;;;;;;;22.76;67.10;100877.13;5033804;28;20048;-48
2021/07/14 00:37:20;;;;;;;15.93;11.27;;;;;;;22.83;66.78;100880.22;5034960;28;20025;-48
2021/07/14 00:39:55;;;;;;;13.45;11.35;;;;;;;22.87;66.86;100878.41;5030578;28;20032;-48
2021/07/14 00:42:20;;;;;;;14.18;10.43;;;;;;;22.90;66.92;100874.22;5032269;28;20577;-47
2021/07/14 00:44:46;;;;;;;12.65;11.27;;;;;;;22.96;67.06;100864.72;5030914;28;20045;-48
2021/07/14 00:47:11;;;;;;;12.75;10.90;;;;;;;22.98;67.25;100862.47;5034209;28;20036;-48
2021/07/14 00:49:37;;;;;;;16.98;11.82;;;;;;;22.90;68.51;100866.03;5030192;28;20026;-48
2021/07/14 00:52:03;;;;;;;14.35;11.77;;;;;;;22.95;68.69;100857.63;5030605;28;20025;-49
2021/07/14 00:54:29;;;;;;;13.98;11.75;;;;;;;22.91;68.94;100845.78;5028940;28;20606;-51
2021/07/14 00:56:54;;;;;;;14.77;12.50;;;;;;;22.78;70.21;100842.09;5030858;28;20116;-49
2021/07/14 00:59:20;;;;;;;14.55;11.73;;;;;;;22.73;70.51;100857.88;5036906;28;20044;-49
2021/07/14 01:01:46;;;;;;;15.20;11.52;;;;;;;22.78;70.17;100860.41;5030495;28;20021;-48
2021/07/14 01:04:33;;;;;;;15.77;11.57;;;;;;;22.74;70.42;100846.63;5033481;28;20140;-47
2021/07/14 01:06:58;;;;;;;13.68;11.60;;;;;;;22.74;70.12;100845.81;5029561;28;20408;-46
2021/07/14 01:09:36;;;;;;;13.60;12.18;;;;;;;22.50;72.14;100833.53;5035491;28;20030;-48
2021/07/14 01:12:09;;;;;;;13.38;11.98;;;;;;;22.39;72.25;100823.28;5028800;28;20030;-47
2021/07/14 01:15:13;;;;;;;19.50;14.00;;;;;;;22.37;72.85;100822.81;5033783;28;20045;-46
2021/07/14 01:17:47;;;;;;;17.05;13.15;;;;;;;22.30;73.26;100826.03;5025254;28;20041;-46
2021/07/14 01:20:33;;;;;;;14.52;12.18;;;;;;;22.16;73.83;100806.31;5026505;28;20082;-48
2021/07/14 01:23:22;;;;;;;14.93;12.85;;;;;;;22.14;73.51;100790.28;5027323;28;20368;-47
2021/07/14 01:26:06;;;;;;;16.50;12.25;;;;;;;22.10;73.78;100781.16;5030103;28;20056;-48
2021/07/14 01:28:35;;;;;;;14.77;12.40;;;;;;;21.89;74.66;100772.78;5028425;28;20032;-49
2021/07/14 01:31:01;;;;;;;15.57;12.55;;;;;;;21.93;74.65;100757.41;5027955;28;20280;-48
2021/07/14 01:33:31;;;;;;;19.23;13.55;;;;;;;21.98;73.74;100765.41;5027659;28;20108;-48
2021/07/14 01:35:59;;;;;;;15.35;12.65;;;;;;;22.05;73.14;100775.03;5027221;28;20109;-47
2021/07/14 01:38:26;;;;;;;15.50;12.50;;;;;;;22.10;72.93;100788.53;5027704;28;20035;-47
2021/07/14 01:40:58;;;;;;;13.73;12.32;;;;;;;22.02;73.27;100782.72;5027966;28;20057;-47
2021/07/14 01:43:25;;;;;;;16.80;13.38;;;;;;;22.02;73.38;100788.19;5029921;28;20033;-47
2021/07/14 01:45:54;;;;;;;17.25;12.02;;;;;;;21.88;74.10;100790.28;5029904;28;20032;-48
2021/07/14 01:48:21;;;;;;;14.93;12.63;;;;;;;22.03;72.72;100789.78;5030025;28;20506;-48
2021/07/14 01:50:48;;;;;;;13.88;12.38;;;;;;;22.16;71.75;100795.41;5029003;28;20047;-48
2021/07/14 01:53:15;;;;;;;14.55;12.70;;;;;;;22.12;72.26;100789.81;5026897;28;20021;-47
2021/07/14 01:55:43;;;;;;;15.57;11.20;;;;;;;22.10;72.43;100792.06;5029014;28;20840;-46
2021/07/14 01:58:09;;;;;;;12.77;11.48;;;;;;;22.03;72.67;100787.06;5029298;28;20025;-47
2021/07/14 02:00:36;;;;;;;16.42;12.55;;;;;;;22.04;72.34;100787.84;5030144;28;20025;-47
2021/07/14 02:03:16;;;;;;;14.43;11.95;;;;;;;22.13;71.74;100790.59;5029590;28;20266;-47
2021/07/14 02:05:44;;;;;;;12.15;10.93;;;;;;;22.03;72.08;100787.06;5027968;28;20059;-47
2021/07/14 02:08:09;;;;;;;12.45;10.95;;;;;;;22.09;71.68;100797.84;5028958;28;20026;-48
2021/07/14 02:10:36;;;;;;;15.38;11.85;;;;;;;22.17;71.21;100799.75;5029300;28;20040;-48
2021/07/14 02:13:03;;;;;;;13.32;11.65;;;;;;;22.21;71.25;100808.88;5027662;28;20037;-48
2021/07/14 02:15:31;;;;;;;13.93;12.25;;;;;;;22.26;70.80;100814.97;5028386;28;20090;-48
2021/07/14 02:18:02;;;;;;;17.58;12.85;;;;;;;22.28;70.61;100814.66;5012754;28;20033;-47
2021/07/14 02:20:28;;;;;;;14.98;12.32;;;;;;;22.27;70.83;100818.50;5029491;28;20589;-49
2021/07/14 02:22:53;;;;;;;16.00;12.20;;;;;;;22.24;70.73;100832.78;5027762;28;20120;-47
2021/07/14 02:25:21;;;;;;;21.60;13.75;;;;;;;22.23;70.75;100828.44;5027629;28;20033;-48
2021/07/14 02:27:46;;;;;;;14.70;11.75;;;;;;;22.18;71.07;100828.63;5028272;28;20041;-47
2021/07/14 02:30:21;;;;;;;16.83;12.20;;;;;;;22.13;71.51;100840.53;5028619;28;20037;-50
2021/07/14 02:32:48;;;;;;;;;;;;;;;22.00;71.96;100839.53;5028582;28;20108;-47
2021/07/14 02:35:14;;;;;;;17.88;12.23;;;;;;;22.06;71.51;100855.75;5027695;28;19975;-46
2021/07/14 02:37:59;;;;;;;17.55;11.88;;;;;;;22.00;71.72;100844.19;5032533;28;20029;-47
2021/07/14 02:40:37;;;;;;;13.48;12.07;;;;;;;22.07;71.51;100857.38;5033539;28;20022;-47
2021/07/14 02:43:05;;;;;;;16.42;12.38;;;;;;;22.04;71.83;100850.59;5031609;28;20040;-46
2021/07/14 02:45:32;;;;;;;16.00;13.00;;;;;;;22.00;72.10;100846.91;5032359;28;20491;-47
2021/07/14 02:48:01;;;;;;;15.43;12.95;;;;;;;21.97;72.11;100844.84;5033075;28;20053;-48
2021/07/14 02:50:30;;;;;;;14.32;12.82;;;;;;;21.96;72.48;100843.25;5032913;28;20588;-46
2021/07/14 02:53:01;;;;;;;14.98;12.85;;;;;;;21.92;72.46;100840.34;5032340;28;20029;-47
2021/07/14 02:55:30;;;;;;;16.45;13.23;;;;;;;21.89;72.52;100838.25;5031800;28;20071;-47
2021/07/14 02:57:59;;;;;;;15.73;12.60;;;;;;;21.87;72.71;100847.88;5031394;28;20593;-47
2021/07/14 03:00:26;;;;;;;16.05;13.48;;;;;;;21.88;72.91;100849.47;5032817;28;20067;-47
2021/07/14 03:02:53;;;;;;;14.75;13.18;;;;;;;21.85;73.02;100855.59;5031760;28;20083;-47
2021/07/14 03:05:19;;;;;;;17.92;13.30;;;;;;;21.81;73.20;100852.69;5032309;28;20024;-48
2021/07/14 03:07:47;;;;;;;15.38;13.35;;;;;;;21.84;73.10;100845.81;5032529;28;20308;-48
2021/07/14 03:10:21;;;;;;;16.60;14.90;;;;;;;21.82;73.17;100846.13;5031232;28;20029;-48
2021/07/14 03:12:52;;;;;;;19.58;15.00;;;;;;;21.83;73.41;100857.84;5024072;28;20104;-48
2021/07/14 03:15:18;;;;;;;17.50;14.40;;;;;;;21.79;73.78;100844.03;5031035;28;20108;-48
2021/07/14 03:17:45;;;;;;;15.95;14.23;;;;;;;21.83;73.43;100852.38;5031823;28;20112;-47
2021/07/14 03:20:14;;;;;;;16.83;14.02;;;;;;;21.82;73.65;100856.22;5030732;28;20033;-47
2021/07/14 03:22:47;;;;;;;16.83;13.98;;;;;;;21.79;73.79;100854.16;5030378;28;20434;-46
2021/07/14 03:25:14;;;;;;;17.48;14.40;;;;;;;21.75;73.87;100862.19;5031967;28;20383;-47
2021/07/14 03:27:41;;;;;;;15.98;13.93;;;;;;;21.78;73.88;100858.81;5032129;28;20236;-47
2021/07/14 03:30:08;;;;;;;15.98;14.25;;;;;;;21.77;74.02;100862.66;5031688;28;20086;-46
2021/07/14 03:32:34;;;;;;;20.27;15.48;;;;;;;21.76;74.20;100860.25;5031711;28;20037;-47
2021/07/14 03:35:00;;;;;;;17.13;14.63;;;;;;;21.74;74.22;100868.75;5028943;28;20029;-47
2021/07/14 03:37:25;;;;;;;17.38;14.75;;;;;;;21.77;74.05;100872.75;5031603;28;20379;-46
2021/07/14 03:39:53;;;;;;;17.27;14.55;;;;;;;21.71;74.60;100877.53;5031979;28;20140;-47
2021/07/14 03:42:19;;;;;;;17.70;14.65;;;;;;;21.77;74.36;100878.22;5031975;28;20468;-47
2021/07/14 03:44:47;;;;;;;18.67;15.05;;;;;;;21.80;74.12;100875.66;5031603;28;20674;-47
2021/07/14 03:47:17;;;;;;;18.52;14.80;;;;;;;21.73;74.81;100872.59;5029526;28;20021;-46
2021/07/14 03:49:45;;;;;;;19.88;14.65;;;;;;;21.73;74.68;100880.78;5032499;28;20040;-47
2021/07/14 03:52:12;;;;;;;17.20;15.05;;;;;;;21.81;74.27;100879.19;5020379;28;20035;-49
2021/07/14 03:54:39;;;;;;;19.92;14.95;;;;;;;21.79;74.22;100884.16;5030311;28;20017;-46
2021/07/14 03:57:05;;;;;;;21.35;16.20;;;;;;;21.86;74.42;100889.91;5031262;28;20029;-47
2021/07/14 03:59:31;;;;;;;18.23;15.80;;;;;;;21.82;74.33;100892.50;5031183;28;20100;-47
2021/07/14 04:01:57;;;;;;;18.60;16.02;;;;;;;21.84;74.45;100890.25;5031683;28;20041;-47
2021/07/14 04:04:23;;;;;;;20.60;14.82;;;;;;;21.83;74.66;100883.19;5031109;28;20033;-48
2021/07/14 04:06:56;;;;;;;22.20;15.60;;;;;;;21.81;75.01;100874.53;5032268;28;20029;-48
2021/07/14 04:09:26;;;;;;;21.42;14.20;;;;;;;21.65;76.94;100879.63;5030642;28;20033;-47
2021/07/14 04:11:57;;;;;;;19.05;15.30;;;;;;;21.52;77.47;100891.47;5030759;28;20069;-48
2021/07/14 04:14:24;;;;;;;16.55;13.70;;;;;;;21.63;76.36;100881.09;5030245;28;20048;-47
2021/07/14 04:16:50;;;;;;;18.70;14.13;;;;;;;21.77;75.83;100883.66;5022417;28;20033;-48
2021/07/14 04:19:16;;;;;;;18.50;14.50;;;;;;;21.82;75.83;100867.94;5030717;28;20424;-49
2021/07/14 04:21:41;;;;;;;24.33;15.43;;;;;;;21.80;77.11;100875.66;5031953;28;20114;-47
2021/07/14 04:24:07;;;;;;;18.73;14.75;;;;;;;21.94;76.05;100883.69;5032108;28;20028;-50
2021/07/14 04:26:34;;;;;;;17.20;13.55;;;;;;;22.10;75.59;100884.84;5031465;28;20100;-48
2021/07/14 04:28:59;;;;;;;19.67;15.15;;;;;;;22.15;75.50;100889.31;5030680;28;20108;-47
2021/07/14 04:31:25;;;;;;;18.08;15.23;;;;;;;22.10;76.62;100892.22;5035402;28;20143;-51
2021/07/14 04:33:50;;;;;;;19.25;15.60;;;;;;;22.20;76.14;100892.69;5032787;28;20036;-49
2021/07/14 04:36:16;;;;;;;17.80;14.63;;;;;;;22.49;74.73;100894.72;5032590;28;20028;-49
2021/07/14 04:38:41;;;;;;;17.33;14.02;;;;;;;22.63;74.20;100888.28;5033882;28;20029;-48
2021/07/14 04:41:07;;;;;;;16.92;14.13;;;;;;;22.68;73.68;100894.38;5033995;28;20025;-50
2021/07/14 04:43:34;;;;;;;17.80;14.38;;;;;;;22.79;73.29;100884.66;5032765;28;20387;-48
2021/07/14 04:46:00;;;;;;;19.40;15.07;;;;;;;22.95;72.78;100890.44;5032117;28;20044;-49
2021/07/14 04:48:25;;;;;;;17.15;14.27;;;;;;;23.03;72.43;100886.88;5036916;28;20025;-50
2021/07/14 04:50:52;;;;;;;19.20;15.35;;;;;;;23.14;71.95;100888.09;5035726;28;20025;-51
2021/07/14 04:53:17;;;;;;;17.65;15.30;;;;;;;23.21;72.16;100880.19;5033161;28;20402;-51
2021/07/14 04:55:43;;;;;;;17.23;15.35;;;;;;;23.34;72.10;100863.88;5034063;28;20035;-50
2021/07/14 04:58:09;;;;;;;19.67;16.02;;;;;;;23.43;72.09;100867.34;5032735;28;20361;-50
2021/07/14 05:00:34;;;;;;;21.25;16.27;;;;;;;23.56;71.79;100870.97;5036954;28;20031;-54
2021/07/14 05:03:00;;;;;;;19.20;16.17;;;;;;;23.54;72.73;100862.31;5034243;28;20039;-51
2021/07/14 05:05:25;;;;;;;19.58;17.02;;;;;;;23.59;72.69;100862.94;5036046;28;20029;-50
2021/07/14 05:07:51;;;;;;;18.63;16.23;;;;;;;23.61;72.45;100852.47;5034357;28;20062;-48
2021/07/14 05:10:20;;;;;;;19.25;16.10;;;;;;;23.70;71.68;100845.00;5034687;28;20244;-49
2021/07/14 05:12:46;;;;;;;23.15;16.23;;;;;;;23.75;71.75;100844.00;5032343;28;20439;-48
2021/07/14 05:15:12;;;;;;;19.90;16.88;;;;;;;23.69;71.46;100843.38;5031840;28;20567;-50
2021/07/14 05:17:38;;;;;;;19.80;16.33;;;;;;;23.71;71.68;100851.28;5035561;28;20025;-50
2021/07/14 05:20:05;;;;;;;19.55;16.17;;;;;;;23.84;71.25;100849.38;5033795;28;20032;-51
2021/07/14 05:22:31;;;;;;;21.05;16.45;;;;;;;23.89;71.11;100846.47;5013944;28;20032;-51
2021/07/14 05:24:56;;;;;;;18.48;15.80;;;;;;;23.91;70.82;100841.47;5035257;28;20061;-54
2021/07/14 05:27:22;;;;;;;22.35;15.35;;;;;;;24.15;69.92;100843.47;5036141;28;20036;-48
2021/07/14 05:29:47;;;;;;;18.15;15.00;;;;;;;24.27;69.30;100840.78;5031446;28;20301;-50
2021/07/14 05:32:13;;;;;;;22.95;14.70;;;;;;;24.34;69.13;100846.53;5032612;28;20033;-48
2021/07/14 05:34:38;;;;;;;18.52;15.07;;;;;;;24.37;68.68;100851.31;5029506;28;20045;-50
2021/07/14 05:37:04;;;;;;;17.55;15.68;;;;;;;24.36;68.97;100861.47;5030990;28;20506;-51
2021/07/14 05:39:29;;;;;;;19.40;15.95;;;;;;;24.44;68.86;100861.75;5030908;28;20491;-48
2021/07/14 05:41:55;;;;;;;19.58;16.77;;;;;;;24.48;68.44;100876.34;5031693;28;20040;-51
2021/07/14 05:44:20;;;;;;;21.27;15.00;;;;;;;24.54;68.38;100883.22;5033302;28;20117;-49
2021/07/14 05:46:46;;;;;;;19.90;16.45;;;;;;;24.63;68.22;100889.41;5030308;28;20025;-52
2021/07/14 05:49:12;;;;;;;20.33;16.67;;;;;;;24.74;67.67;100892.50;5034007;28;20021;-48
2021/07/14 05:51:38;;;;;;;19.25;16.52;;;;;;;24.80;67.18;100891.16;5035373;28;20013;-51
2021/07/14 05:54:05;;;;;;;20.50;15.77;;;;;;;24.89;67.09;100895.38;5030554;28;20415;-50
2021/07/14 05:56:31;;;;;;;18.67;15.00;;;;;;;25.08;66.23;100886.63;5030781;28;20033;-50
2021/07/14 05:58:56;;;;;;;18.13;15.73;;;;;;;25.19;65.60;100886.97;5033360;28;20028;-53
2021/07/14 06:01:22;;;;;;;18.77;15.95;;;;;;;25.23;65.68;100887.88;5019301;28;20037;-51
2021/07/14 06:03:48;;;;;;;22.45;15.55;;;;;;;25.43;65.56;100886.16;5033380;28;20037;-48
2021/07/14 06:06:15;;;;;;;18.60;15.38;;;;;;;25.66;64.38;100883.69;5031815;28;20029;-50
2021/07/14 06:08:41;;;;;;;16.85;14.55;;;;;;;25.72;63.67;100890.59;5016612;28;20483;-52
2021/07/14 06:11:07;;;;;;;18.63;15.25;;;;;;;25.80;63.62;100889.66;5033133;28;20034;-52
2021/07/14 06:13:33;;;;;;;18.38;15.23;;;;;;;25.87;63.25;100887.13;5031055;28;20025;-49
2021/07/14 06:15:58;;;;;;;17.27;15.48;;;;;;;25.88;62.79;100897.75;5032573;28;20061;-51
2021/07/14 06:18:24;;;;;;;20.58;15.95;;;;;;;25.92;62.89;100897.84;5031349;28;20052;-50
2021/07/14 06:20:50;;;;;;;17.80;14.82;;;;;;;25.95;63.04;100902.66;5028417;28;20512;-49
2021/07/14 06:23:15;;;;;;;19.08;14.55;;;;;;;26.11;62.60;100906.25;5017342;28;20025;-49
2021/07/14 06:25:41;;;;;;;17.92;15.75;;;;;;;26.07;62.14;100904.56;5032377;28;20306;-51
2021/07/14 06:28:07;;;;;;;18.27;16.20;;;;;;;25.94;62.95;100900.25;5030351;28;20079;-54
2021/07/14 06:30:33;;;;;;;17.38;14.25;;;;;;;26.00;62.56;100901.59;5029619;28;20049;-51
2021/07/14 06:32:59;;;;;;;19.92;16.13;;;;;;;26.06;62.45;100898.28;5032024;28;20060;-50
2021/07/14 06:35:25;;;;;;;17.75;15.52;;;;;;;26.25;62.35;100899.56;5030503;28;20017;-50
2021/07/14 06:37:51;;;;;;;18.38;16.42;;;;;;;26.48;61.69;100897.88;5031914;28;20112;-49
2021/07/14 06:40:17;;;;;;;21.75;16.25;;;;;;;26.62;60.83;100887.28;5031325;28;20113;-50
2021/07/14 06:42:43;;;;;;;17.05;15.30;;;;;;;26.66;60.54;100888.16;5032581;28;20169;-53
2021/07/14 06:45:10;;;;;;;17.75;15.75;;;;;;;26.69;60.56;100881.94;5031874;28;20030;-49
2021/07/14 06:47:36;;;;;;;17.38;15.55;;;;;;;26.84;60.25;100871.31;5031495;28;20026;-51
2021/07/14 06:50:07;;;;;;;16.77;14.98;;;;;;;26.97;60.50;100872.81;5033357;28;20099;-50
2021/07/14 06:52:33;;;;;;;17.13;15.15;;;;;;;27.12;59.47;100877.53;5033793;28;20059;-55
2021/07/14 06:54:58;;;;;;;19.98;16.55;;;;;;;27.13;58.97;100872.84;5029287;28;20025;-50
2021/07/14 06:57:25;;;;;;;21.63;15.20;;;;;;;26.99;58.49;100878.75;5031390;28;20021;-51
2021/07/14 06:59:50;;;;;;;17.38;14.30;;;;;;;26.98;58.28;100888.16;5031537;28;20509;-48
2021/07/14 07:02:16;;;;;;;19.20;14.10;;;;;;;26.69;58.55;100890.19;5033829;28;20041;-53
2021/07/14 07:04:42;;;;;;;17.83;12.45;;;;;;;26.69;58.51;100892.13;5033936;28;20033;-53
2021/07/14 07:07:07;;;;;;;17.95;14.23;;;;;;;26.14;59.88;100888.28;5018388;28;20033;-53
2021/07/14 07:09:33;;;;;;;18.00;14.63;;;;;;;26.32;59.53;100895.06;5032058;28;20044;-49
2021/07/14 07:11:59;;;;;;;19.40;13.48;;;;;;;26.44;59.21;100903.28;5031266;28;20402;-51
2021/07/14 07:14:24;;;;;;;20.80;14.85;;;;;;;26.56;59.13;100902.41;5029686;28;20029;-53
2021/07/14 07:16:50;;;;;;;15.85;13.80;;;;;;;26.63;58.63;100904.56;5034878;28;20028;-49
2021/07/14 07:19:15;;;;;;;16.08;14.35;;;;;;;26.77;58.43;100904.94;5030745;28;20030;-50
2021/07/14 07:21:41;;;;;;;16.15;13.75;;;;;;;26.95;57.71;100905.38;5034237;28;20028;-53
2021/07/14 07:24:06;;;;;;;15.10;12.23;;;;;;;27.16;57.12;100905.13;5035853;28;20034;-49
2021/07/14 07:26:32;;;;;;;16.50;12.80;;;;;;;27.19;57.58;100915.41;5038044;28;20063;-50
2021/07/14 07:29:03;;;;;;;19.40;13.80;;;;;;;27.28;57.29;100914.06;5038618;28;20087;-50
2021/07/14 07:31:28;;;;;;;21.00;13.40;;;;;;;26.97;58.01;100925.88;5035157;28;20064;-53
2021/07/14 07:33:54;;;;;;;18.38;14.38;;;;;;;26.66;59.19;100936.81;5034821;28;20462;-49
2021/07/14 07:36:19;;;;;;;19.35;13.73;;;;;;;26.78;59.03;100936.75;5034601;28;20029;-49
2021/07/14 07:38:45;;;;;;;16.73;13.93;;;;;;;26.82;59.21;100934.91;5034666;28;20040;-51
2021/07/14 07:41:12;;;;;;;16.92;13.52;;;;;;;27.02;58.31;100930.31;5036606;28;20017;-53
2021/07/14 07:43:37;;;;;;;19.08;13.43;;;;;;;27.12;57.93;100921.56;5038904;28;20049;-50
2021/07/14 07:46:03;;;;;;;18.52;13.18;;;;;;;27.64;56.91;100920.41;5036487;28;20080;-49
2021/07/14 07:48:29;;;;;;;20.67;12.18;;;;;;;27.75;55.51;100915.94;5034839;28;20527;-52
2021/07/14 07:50:55;;;;;;;19.73;12.30;;;;;;;27.19;57.37;100921.72;5033376;28;20029;-52
2021/07/14 07:53:21;;;;;;;19.08;12.52;;;;;;;27.17;57.96;100932.28;5033697;28;20025;-53
2021/07/14 07:55:48;;;;;;;19.73;11.95;;;;;;;26.61;59.51;100935.13;5034331;28;20530;-53
2021/07/14 07:58:14;;;;;;;14.55;11.93;;;;;;;27.06;58.79;100936.69;5034441;28;20033;-53
2021/07/14 08:00:40;;;;;;;15.18;12.18;;;;;;;27.33;58.31;100949.56;5038409;28;20064;-53
2021/07/14 08:03:06;;;;;;;17.13;11.73;;;;;;;27.43;57.59;100930.91;5035163;28;20057;-51
2021/07/14 08:05:31;;;;;;;15.38;11.15;;;;;;;27.43;57.65;100926.19;5033116;28;20475;-50
2021/07/14 08:07:57;;;;;;;16.33;12.00;;;;;;;27.32;58.02;100936.16;5033187;28;20552;-54
2021/07/14 08:10:23;;;;;;;20.30;11.75;;;;;;;27.33;57.94;100933.06;5034702;28;20029;-49
2021/07/14 08:12:48;;;;;;;17.15;11.70;;;;;;;27.35;58.22;100928.00;5033994;28;20108;-51
2021/07/14 08:15:14;;;;;;;18.02;12.02;;;;;;;27.31;57.75;100924.38;5034520;28;20048;-50
2021/07/14 08:17:40;;;;;;;18.73;11.73;;;;;;;27.27;58.02;100926.22;5035797;28;20025;-50
2021/07/14 08:20:08;;;;;;;14.82;10.55;;;;;;;27.24;56.86;100940.69;5032972;28;20150;-49
2021/07/14 08:22:34;;;;;;;13.90;9.68;;;;;;;27.32;57.15;100941.69;5034348;28;20074;-50
2021/07/14 08:25:01;;;;;;;13.68;10.77;;;;;;;27.02;57.51;100942.13;5032352;28;20033;-49
2021/07/14 08:27:27;;;;;;;12.93;10.35;;;;;;;27.44;57.26;100933.28;5034864;28;20021;-50
2021/07/14 08:29:58;;;;;;;15.75;11.10;;;;;;;27.63;56.24;100927.06;5034005;28;20029;-49
2021/07/14 08:32:25;;;;;;;14.07;10.50;;;;;;;28.04;55.30;100920.09;5033566;28;20039;-50
2021/07/14 08:34:50;;;;;;;13.65;8.48;;;;;;;27.52;56.32;100923.25;5033353;28;20506;-49
2021/07/14 08:37:15;;;;;;;13.05;8.95;;;;;;;27.64;55.95;100926.72;5033025;28;20033;-48
2021/07/14 08:39:41;;;;;;;12.20;7.43;;;;;;;28.07;55.42;100926.84;5030143;28;20017;-53
2021/07/14 08:42:08;;;;;;;12.57;7.40;;;;;;;28.07;54.99;100941.41;5035169;28;20025;-49
2021/07/14 08:44:35;;;;;;;15.27;7.80;;;;;;;28.16;54.17;100943.94;5034252;28;20399;-50
2021/07/14 08:47:00;;;;;;;9.70;6.30;;;;;;;28.15;52.74;100940.38;5035586;28;20036;-51
2021/07/14 08:49:27;;;;;;;12.20;7.32;;;;;;;27.94;54.95;100946.25;5034810;28;20687;-51
2021/07/14 08:51:53;;;;;;;11.45;5.80;;;;;;;28.00;54.03;100955.03;5033292;28;20083;-53
2021/07/14 08:54:19;;;;;;;10.75;5.32;;;;;;;28.29;52.37;100943.47;5030865;28;20025;-51
2021/07/14 08:56:45;;;;;;;11.00;5.97;;;;;;;28.35;52.31;100935.69;5032366;28;20035;-49
2021/07/14 08:59:11;;;;;;;10.02;5.00;;;;;;;28.90;51.50;100936.34;5030099;28;20025;-51
2021/07/14 09:01:36;;;;;;;8.07;4.32;;;;;;;28.96;50.71;100936.84;5034363;28;20037;-52
2021/07/14 09:04:03;;;;;;;8.05;4.45;;;;;;;29.17;49.52;100939.97;5031334;28;20036;-52
2021/07/14 09:06:30;;;;;;;7.22;4.60;;;;;;;29.14;49.80;100941.50;5032442;28;20624;-54
2021/07/14 09:08:55;;;;;;;8.30;5.15;;;;;;;29.34;50.20;100944.16;5033782;28;20503;-53
2021/07/14 09:11:21;;;;;;;7.45;5.03;;;;;;;29.56;50.08;100957.16;5032030;28;20056;-51
2021/07/14 09:13:47;;;;;;;9.25;5.13;;;;;;;29.29;50.03;100959.09;5030878;28;20506;-51
2021/07/14 09:16:35;;;;;;;8.23;4.68;;;;;;;29.64;49.70;100958.06;5032189;28;20506;-52
2021/07/14 09:19:14;;;;;;;13.65;5.80;;;;;;;29.81;49.86;100949.25;5031450;28;20840;-53
2021/07/14 09:21:43;;;;;;;8.23;4.82;;;;;;;30.17;48.41;100936.72;5029811;28;20041;-51
2021/07/14 09:24:29;;;;;;;7.68;5.18;;;;;;;30.22;47.83;100950.19;5035277;28;20056;-52
2021/07/14 09:26:56;;;;;;;8.07;5.18;;;;;;;30.37;47.64;100940.09;5033754;28;20025;-52
2021/07/14 09:29:21;;;;;;;9.85;5.28;;;;;;;30.56;47.21;100939.09;5015591;28;20040;-51
2021/07/14 09:31:48;;;;;;;7.85;5.82;;;;;;;30.45;48.56;100929.91;5031698;28;20041;-50
2021/07/14 09:34:32;;;;;;;9.05;5.88;;;;;;;30.53;46.13;100931.56;5034501;28;20020;-51
2021/07/14 09:37:03;;;;;;;9.45;5.35;;;;;;;30.72;47.37;100934.16;5030174;28;20285;-53
2021/07/14 09:39:33;;;;;;;8.57;5.00;;;;;;;30.75;46.47;100932.59;5031972;28;20574;-54
2021/07/14 09:42:08;;;;;;;8.93;5.63;;;;;;;30.77;46.76;100936.56;5030210;28;20025;-54
2021/07/14 09:44:34;;;;;;;8.13;5.78;;;;;;;30.89;46.32;100938.28;5032732;28;20035;-53
2021/07/14 09:47:10;;;;;;;9.30;5.38;;;;;;;30.89;46.38;100936.31;5018180;28;20017;-52
2021/07/14 09:49:36;;;;;;;8.77;5.53;;;;;;;31.04;46.43;100930.88;5033159;28;20036;-49
2021/07/14 09:52:11;;;;;;;12.55;6.10;;;;;;;30.44;47.67;100939.38;5030943;28;20403;-53
2021/07/14 09:54:37;;;;;;;9.38;6.15;;;;;;;30.61;47.50;100930.47;5033386;28;20129;-51
2021/07/14 09:57:11;;;;;;;9.73;5.93;;;;;;;30.53;47.61;100931.56;5017664;28;20052;-53
2021/07/14 09:59:37;;;;;;;10.48;6.20;;;;;;;30.78;47.55;100935.41;5031561;28;20041;-52
2021/07/14 10:02:02;;;;;;;9.32;6.30;;;;;;;30.44;47.04;100947.66;5017789;28;20033;-51
2021/07/14 10:04:31;;;;;;;10.90;6.25;;;;;;;30.16;48.93;100956.41;5032071;28;20037;-52
2021/07/14 10:07:14;;;;;;;13.15;6.53;;;;;;;30.35;48.29;100959.03;5030724;28;20036;-53
2021/07/14 10:09:43;;;;;;;10.77;6.18;;;;;;;30.51;48.69;100956.81;5031931;28;20033;-49
2021/07/14 10:12:30;;;;;;;8.85;6.65;;;;;;;29.75;50.45;100964.53;5030902;28;20029;-54
2021/07/14 10:15:08;;;;;;;10.20;7.75;;;;;;;29.57;51.50;100963.47;5033554;28;20087;-50
2021/07/14 10:17:48;;;;;;;9.48;7.18;;;;;;;29.25;51.38;100962.94;5029271;28;20495;-52
2021/07/14 10:20:26;;;;;;;9.85;7.53;;;;;;;28.75;53.38;100959.31;5028558;28;20033;-56
2021/07/14 10:22:54;;;;;;;12.15;7.30;;;;;;;29.53;51.24;100957.91;5030165;28;20040;-52
2021/07/14 10:25:20;;;;;;;11.15;6.93;;;;;;;29.19;51.53;100965.22;5030744;28;20471;-52
2021/07/14 10:27:47;;;;;;;13.23;7.20;;;;;;;29.31;51.76;100969.75;5033000;28;20079;-53
2021/07/14 10:30:13;;;;;;;7.93;6.95;;;;;;;29.02;52.16;100977.53;5030643;28;20052;-52
2021/07/14 10:32:41;;;;;;;10.13;6.55;;;;;;;28.91;51.12;100982.09;5028966;28;20029;-51
2021/07/14 10:35:10;;;;;;;8.38;6.18;;;;;;;28.93;50.98;100987.25;5030953;28;20036;-52
2021/07/14 10:37:38;;;;;;;8.35;6.50;;;;;;;29.25;50.90;100987.75;5032003;28;20029;-48
2021/07/14 10:40:07;;;;;;;10.57;6.60;;;;;;;29.11;52.02;100985.59;5015429;28;20037;-50
2021/07/14 10:42:34;;;;;;;8.65;6.50;;;;;;;28.15;53.18;100992.72;5034787;28;20033;-53
2021/07/14 10:45:02;;;;;;;9.38;6.72;;;;;;;28.42;52.40;100981.91;5031341;28;20083;-52
2021/07/14 10:47:28;;;;;;;7.78;6.47;;;;;;;28.20;52.97;100970.41;5031656;28;20031;-53
2021/07/14 10:49:55;;;;;;;8.13;6.35;;;;;;;28.23;53.27;100972.44;5030353;28;20517;-49
2021/07/14 10:52:23;;;;;;;9.05;6.65;;;;;;;28.48;52.23;100961.16;5032769;28;20403;-49
2021/07/14 10:54:52;;;;;;;9.77;6.32;;;;;;;28.43;51.75;100962.25;5031557;28;20773;-49
2021/07/14 10:57:21;;;;;;;6.78;6.10;;;;;;;28.58;51.47;100957.81;5035711;28;20083;-50
2021/07/14 10:59:48;;;;;;;8.77;6.05;;;;;;;28.98;51.01;100948.31;5036981;28;20021;-51
2021/07/14 11:02:15;;;;;;;7.25;6.53;;;;;;;29.00;50.53;100955.03;5035396;28;20021;-52
2021/07/14 11:04:42;;;;;;;11.85;5.80;;;;;;;29.16;50.11;100965.97;5035322;28;20117;-55
2021/07/14 11:07:08;;;;;;;6.75;6.03;;;;;;;29.08;50.47;100978.81;5033683;28;20083;-49
2021/07/14 11:09:40;;;;;;;8.63;6.28;;;;;;;28.14;53.38;100993.88;5035527;28;20116;-49
2021/07/14 11:12:09;;;;;;;6.55;5.68;;;;;;;28.17;52.79;100997.88;5032778;28;20091;-50
2021/07/14 11:14:40;;;;;;;8.55;6.28;;;;;;;28.64;52.01;100983.13;5036115;28;20041;-49
2021/07/14 11:17:08;;;;;;;9.32;6.38;;;;;;;28.57;51.83;101009.38;5032844;28;20048;-52
2021/07/14 11:19:49;;;;;;;8.02;6.40;;;;;;;28.54;52.25;101045.94;5032879;28;20132;-49
2021/07/14 11:22:16;;;;;;;9.73;5.85;;;;;;;28.62;52.81;101057.13;5033918;28;20029;-51
2021/07/14 11:24:49;;;;;;;7.07;6.03;;;;;;;27.72;54.81;101056.25;5034316;28;20075;-53